WEATHER DATA

YESTERDAY
Time Temp. Dewp. Hum. Bar. 1h Prec. 24h Prec.
00:07 2.8 0.2 83 1014.1 0.0000 0.0000
00:27 2.9 0.3 83 1014.1 0.0000 0.0000
00:38 2.8 0.2 83 1014 0.0000 0.0000
00:48 2.7 0.1 83 1014 0.0000 0.0000
00:57 2.5 -0.1 83 1013.9 0.0000 0.0000
01:07 2.1 -0.4 83 1013.9 0.0000 0.0000
01:18 1.7 -0.8 83 1013.9 0.0000 0.0000
01:28 1.4 -1 83 1013.9 0.0000 0.0000
01:38 1.1 -1.3 83 1013.8 0.0000 0.0000
01:48 0.8 -1.4 84 1013.9 0.0000 0.0000
01:58 0.6 -1.6 84 1013.8 0.0000 0.0000
02:08 0.4 -1.8 84 1013.8 0.0000 0.0000
02:18 0.3 -1.8 84 1013.9 0.0000 0.0000
02:29 0.2 -1.9 84 1013.9 0.0000 0.0000
02:39 0.1 -1.9 85 1013.9 0.0000 0.0000
02:48 0 -2 85 1013.9 0.0000 0.0000
02:59 -0.2 -2.2 85 1013.9 0.0000 0.0000
03:09 -0.3 -2.3 85 1013.9 0.0000 0.0000
03:19 -0.3 -2.3 85 1013.8 0.0000 0.0000
03:29 -0.2 -2.2 85 1013.9 0.0000 0.0000
03:39 0 -2 85 1013.9 0.0000 0.0000
03:49 0.2 -1.6 86 1014 0.0000 0.0000
04:04 0.3 -1.7 85 1014 0.0000 0.0000
04:15 0.3 -1.6 86 1013.9 0.0000 0.0000
04:25 0.3 -1.7 85 1013.9 0.0000 0.0000
04:34 0.4 -1.5 86 1014 0.0000 0.0000
04:44 0.2 -1.8 85 1014.1 0.0000 0.0000
04:55 0 -2 85 1014.2 0.0000 0.0000
05:05 0.1 -1.7 86 1014.2 0.0000 0.0000
05:15 0.3 -1.6 86 1014.1 0.0000 0.0000
05:25 0.4 -1.5 86 1014.1 0.0000 0.0000
05:35 0.6 -1.3 86 1014 0.0000 0.0000
05:45 0.8 -1.1 86 1014 0.0000 0.0000
05:55 0.9 -1 86 1014 0.0000 0.0000
06:06 1 -0.9 86 1014.1 0.0000 0.0000
06:15 1 -0.9 86 1014.1 0.0000 0.0000
06:25 1.1 -0.9 86 1014.1 0.0000 0.0000
06:36 1.2 -0.8 86 1014 0.0000 0.0000
06:46 1.2 -0.8 86 1014 0.0000 0.0000
06:56 1.3 -0.7 86 1014 0.0000 0.0000
07:05 1.3 -0.7 86 1014.1 0.0000 0.0000
07:16 1.4 -0.6 86 1014.2 0.0000 0.0000
07:26 1.4 -0.6 86 1014.3 0.0000 0.0000
07:36 1.4 -0.6 86 1014.5 0.0000 0.0000
07:46 1.5 -0.5 86 1014.5 0.0000 0.0000
07:57 1.6 -0.4 86 1014.6 0.0000 0.0000
08:06 1.7 -0.3 86 1014.6 0.0000 0.0000
08:16 1.8 -0.3 86 1014.8 0.0000 0.0000
08:27 1.9 -0.2 86 1014.9 0.0000 0.0000
08:37 2 -0.1 86 1015 0.0000 0.0000
08:47 2.2 0.1 86 1015 0.0000 0.0000
08:57 2.3 0.2 86 1015 0.0000 0.0000
09:07 2.5 0.4 86 1014.9 0.0000 0.0000
09:17 2.7 0.6 86 1015 0.0000 0.0000
09:27 2.9 0.8 86 1015 0.0000 0.0000
09:38 3.1 1 86 1015.1 0.0000 0.0000
09:57 3.4 1.1 85 1015.3 0.0000 0.0000
10:07 3.5 1.2 85 1015.3 0.0000 0.0000
10:18 3.7 1.4 85 1015.4 0.0000 0.0000
10:28 3.8 1.5 85 1015.4 0.0000 0.0000
10:38 3.8 1.5 85 1015.4 0.0000 0.0000
10:48 3.8 1.5 85 1015.3 0.0000 0.0000
10:58 4.2 1.9 85 1015.4 0.0000 0.0000
11:08 4.6 2.3 85 1015.3 0.0000 0.0000
11:18 5.1 2.8 85 1015.2 0.0000 0.0000
11:29 5.4 3.1 85 1015.2 0.0000 0.0000
11:38 5.6 3.3 85 1015.2 0.0000 0.0000
11:48 5.7 3.4 85 1015.2 0.0000 0.0000
11:59 5.8 3.3 84 1015.1 0.0000 0.0000
12:09 6.1 3.6 84 1015 0.0000 0.0000
12:19 6.4 3.9 84 1015 0.0000 0.0000
12:29 6.5 4 84 1015 0.0000 0.0000
12:39 6.6 3.9 83 1015 0.0000 0.0000
12:49 6.8 4.1 83 1015.1 0.0000 0.0000
12:59 7 4.3 83 1015 0.0000 0.0000
13:10 7.1 4.4 83 1015 0.0000 0.0000
13:20 7.1 4.2 82 1015 0.0000 0.0000
13:29 7.3 4.4 82 1014.9 0.0000 0.0000
13:39 7.2 4.2 81 1014.9 0.0000 0.0000
13:50 7 4 81 1014.9 0.0000 0.0000
14:00 7.2 4.3 82 1014.9 0.0000 0.0000
14:10 7.2 4.2 81 1014.9 0.0000 0.0000
14:20 6.9 3.9 81 1014.9 0.0000 0.0000
14:30 6.8 3.8 81 1015 0.0000 0.0000
14:40 6.8 3.8 81 1015 0.0000 0.0000
14:50 6.7 3.7 81 1015 0.0000 0.0000
15:01 6.6 3.6 81 1015.1 0.0000 0.0000
15:11 6.6 3.6 81 1015.1 0.0000 0.0000
15:20 6.7 3.7 81 1015.1 0.0000 0.0000
15:30 6.6 3.4 80 1015.1 0.0000 0.0000
15:41 6.5 3.3 80 1015.1 0.0000 0.0000
15:51 6.4 3.2 80 1015.2 0.0000 0.0000
16:01 6.4 3.2 80 1015.2 0.0000 0.0000
16:11 6.3 3.1 80 1015.2 0.0000 0.0000
16:21 6.2 3 80 1015.2 0.0000 0.0000
16:31 6.2 3 80 1015.2 0.0000 0.0000
16:41 6.1 2.9 80 1015.3 0.0000 0.0000
16:52 6 2.8 80 1015.3 0.0000 0.0000
17:02 5.9 2.7 80 1015.4 0.0000 0.0000
17:11 5.7 2.5 80 1015.5 0.0000 0.0000
17:21 5.6 2.4 80 1015.5 0.0000 0.0000
17:32 5.4 2.2 80 1015.5 0.0000 0.0000
17:42 5.3 2.3 81 1015.4 0.0000 0.0000
17:52 5.2 2.2 81 1015.4 0.0000 0.0000
18:02 5.2 2.2 81 1015.4 0.0000 0.0000
18:12 5.2 2.2 81 1015.4 0.0000 0.0000
18:22 5.1 2.1 81 1015.4 0.0000 0.0000
18:32 4.9 1.9 81 1015.4 0.0000 0.0000
18:43 4.9 2.1 82 1015.4 0.0000 0.0000
18:53 4.9 2.1 82 1015.6 0.0000 0.0000
19:02 4.8 2 82 1015.6 0.0000 0.0000
19:13 4.8 2 82 1015.6 0.0000 0.0000
19:23 4.8 2 82 1015.7 0.0000 0.0000
19:33 4.8 2 82 1015.8 0.0000 0.0000
19:43 4.7 1.9 82 1015.9 0.0000 0.0000
19:53 4.7 1.9 82 1015.9 0.0000 0.0000
20:03 4.6 2 83 1015.9 0.0000 0.0000
20:13 4.6 2 83 1015.8 0.0000 0.0000
20:23 4.6 2 83 1015.9 0.0000 0.0000
20:34 4.6 2 83 1015.9 0.0000 0.0000
20:44 4.5 1.9 83 1015.9 0.0000 0.0000
20:53 4.4 1.8 83 1015.9 0.0000 0.0000
21:04 4.4 1.8 83 1015.9 0.0000 0.0000
21:14 4.4 1.8 83 1015.8 0.0000 0.0000
21:24 4.4 1.8 83 1015.8 0.0000 0.0000
21:34 4.3 1.8 84 1015.8 0.0000 0.0000
21:44 4.3 1.8 84 1015.7 0.0000 0.0000
21:54 4.2 1.7 84 1015.6 0.0000 0.0000
22:04 4.1 1.6 84 1015.7 0.0000 0.0000
22:15 4.1 1.6 84 1015.6 0.0000 0.0000
22:25 4 1.5 84 1015.6 0.0000 0.0000
22:34 4 1.5 84 1015.6 0.0000 0.0000
22:44 4 1.5 84 1015.5 0.0000 0.0000
22:55 3.9 1.4 84 1015.5 0.0000 0.0000
23:05 3.8 1.3 84 1015.4 0.0000 0.0000
23:15 3.7 1.3 84 1015.4 0.0000 0.0000
23:25 3.7 1.3 84 1015.3 0.0000 0.0000
23:35 3.7 1.3 84 1015.4 0.0000 0.0000
23:45 3.6 1.2 84 1015.4 0.0000 0.0000
23:55 3.5 1.2 85 1015.3 0.0000

DAY STATISTIC

2019-11-19
TEMPERATURE
AVERAGE
3.6
HIGH
7.3
13:29
LOW
-0.3
03:09
PRESSURE
AVERAGE
1014.9
HIGH
1015.9
19:43
LOW
1013.8
01:38
DEWPOINT
AVERAGE
1.2
HIGH
4.4
13:10
LOW
-2.3
03:09
HUMIDITY
AVERAGE
84
HIGH
86
03:49
LOW
80
15:30
PRECIPITATION
RAIN HOUR
0.0
RAIN DAY
0.0
TEMPERATURE (°C)
LOW
-0.3
HIGH
7.3
AVERAGE
3.6
PRESSURE (hpa)
LOW
1013.8
HIGH
1015.9
AVERAGE
1014.9
DEVICE